Terminal Aerodrome Forecast
Issued by NWS Duluth, MN

Home | Current Version | Previous Version | Text Only | Print | Product List | Glossary On
Versions: 1 2 3 4 5 6 7 8 9 10 11 12 13 14 15 16 17 18 19 20 21 22 23 24 25 26 27 28 29
000
FTUS43 KDLH 271200 AAA
TAFDLH
TAF AMD
KDLH 271200Z 2712/2812 33006KT P6SM -RA SCT018 OVC045
      TEMPO 2712/2716 4SM -RA BKN018 OVC021
     FM271600 33008KT P6SM -SHRA SCT025 OVC040
      TEMPO 2716/2719 4SM -SHRA BKN025 OVC035
     FM271900 03012G20KT P6SM VCSH SCT025 BKN035
     FM272300 01006KT P6SM FEW035 SCT250=

USA.gov is the U.S. government's official web portal to all federal, state and local government web resources and services.